Time;durP1;ratioP1;P1;durP2;ratioP2;P2;SDS_P1;SDS_P2;PMS_P1;PMS_P2;Temp;Humidity;BMP_temperature;BMP_pressure;BME280_temperature;BME280_humidity;BME280_pressure;Samples;Min_cycle;Max_cycle;Signal;HPM_P1;HPM_P2
2022/09/12 00:00:37;;;;;;;1999.90;999.90;;;;;;;11.32;100.00;94038.91;6271469;22;20168;-59
2022/09/12 00:03:02;;;;;;;1999.90;999.90;;;;;;;11.26;100.00;94032.50;6272195;22;20163;-59
2022/09/12 00:05:28;;;;;;;1999.90;999.90;;;;;;;11.18;100.00;94039.41;6246148;23;20162;-59
2022/09/12 00:07:53;;;;;;;1999.90;999.90;;;;;;;11.15;100.00;94037.53;6271682;22;20161;-59
2022/09/12 00:10:19;;;;;;;1999.90;999.90;;;;;;;11.17;100.00;94033.16;6245726;22;20162;-59
2022/09/12 00:12:44;;;;;;;1999.90;999.90;;;;;;;11.18;100.00;94028.47;6245958;22;20157;-59
2022/09/12 00:15:10;;;;;;;1999.90;999.90;;;;;;;11.17;100.00;94029.66;6271281;22;20215;-59
2022/09/12 00:17:37;;;;;;;1999.90;999.90;;;;;;;11.15;100.00;94024.63;6246498;22;20165;-60
2022/09/12 00:20:05;;;;;;;1999.90;999.90;;;;;;;11.16;100.00;94026.16;6245968;23;20165;-60
2022/09/12 00:22:31;;;;;;;1999.90;999.90;;;;;;;11.17;100.00;94016.75;6245698;23;20185;-60
2022/09/12 00:24:56;;;;;;;1999.90;999.90;;;;;;;11.14;100.00;94006.72;6271204;22;20252;-59
2022/09/12 00:27:21;;;;;;;1999.90;999.90;;;;;;;11.13;100.00;94004.41;6272019;22;20164;-60
2022/09/12 00:29:47;;;;;;;1999.90;999.90;;;;;;;11.12;100.00;94003.66;6271722;22;20239;-60
2022/09/12 00:32:12;;;;;;;1999.90;999.90;;;;;;;11.11;100.00;93999.38;6271596;22;20502;-60
2022/09/12 00:34:37;;;;;;;1999.90;999.90;;;;;;;11.11;100.00;93984.97;6270724;22;20553;-59
2022/09/12 00:37:03;;;;;;;1999.90;999.90;;;;;;;11.09;100.00;93981.91;6271349;22;20203;-59
2022/09/12 00:39:28;;;;;;;1999.90;999.90;;;;;;;11.06;100.00;93985.53;6271922;22;20176;-60
2022/09/12 00:41:54;;;;;;;1999.90;999.90;;;;;;;11.06;100.00;93985.53;6246096;22;20185;-60
2022/09/12 00:44:22;;;;;;;1999.90;999.90;;;;;;;11.06;100.00;93982.78;6271787;22;20231;-60
2022/09/12 00:46:51;;;;;;;1999.90;999.90;;;;;;;11.03;100.00;93987.16;6271321;22;20219;-59
2022/09/12 00:49:25;;;;;;;1999.90;999.90;;;;;;;11.03;100.00;93980.97;6245813;23;20248;-59
2022/09/12 00:52:09;;;;;;;1999.90;999.90;;;;;;;11.02;100.00;93982.91;6271701;22;20181;-59
2022/09/12 00:54:41;;;;;;;1999.90;999.90;;;;;;;11.01;100.00;93980.63;6245778;23;20248;-59
2022/09/12 00:57:08;;;;;;;1999.90;999.90;;;;;;;10.99;100.00;93983.78;6271968;22;20180;-59
2022/09/12 00:59:48;;;;;;;1999.90;999.90;;;;;;;10.95;100.00;93983.16;6245745;23;20224;-60
2022/09/12 01:02:14;;;;;;;1999.90;999.90;;;;;;;10.94;100.00;93969.94;6246227;23;20193;-59
2022/09/12 01:04:40;;;;;;;1999.90;999.90;;;;;;;10.91;100.00;93970.81;6271716;22;20185;-60
2022/09/12 01:07:07;;;;;;;1999.90;999.90;;;;;;;10.87;100.00;93970.94;6271255;22;20176;-59
2022/09/12 01:09:34;;;;;;;1999.90;999.90;;;;;;;10.81;100.00;93967.22;6245604;23;20172;-60
2022/09/12 01:12:01;;;;;;;1999.90;999.90;;;;;;;10.83;100.00;93969.50;6271407;22;20187;-60
2022/09/12 01:14:27;;;;;;;1999.90;999.90;;;;;;;10.75;100.00;93965.50;6245777;22;20173;-59
2022/09/12 01:16:52;;;;;;;1999.90;999.90;;;;;;;10.76;100.00;93967.00;6246235;23;20164;-60
2022/09/12 01:19:24;;;;;;;1999.90;999.90;;;;;;;10.73;100.00;93956.97;6245728;23;20193;-60
2022/09/12 01:22:12;;;;;;;1999.90;999.90;;;;;;;10.69;100.00;93953.56;6271658;22;20195;-59
2022/09/12 01:24:51;;;;;;;1999.90;999.90;;;;;;;10.69;100.00;93964.50;6271100;22;20173;-60
2022/09/12 01:27:50;;;;;;;1999.90;999.90;;;;;;;10.69;100.00;93959.03;6246112;23;20161;-60
2022/09/12 01:30:16;;;;;;;1999.90;999.90;;;;;;;10.66;100.00;93957.97;6271398;22;20474;-60
2022/09/12 01:32:54;;;;;;;1999.90;999.90;;;;;;;10.64;100.00;93956.88;6271337;22;20168;-60
2022/09/12 01:35:28;;;;;;;1999.90;999.90;;;;;;;10.62;100.00;93956.53;6246171;23;20171;-60
2022/09/12 01:38:07;;;;;;;1999.90;999.90;;;;;;;10.63;100.00;93949.88;6271224;22;20159;-60
2022/09/12 01:40:44;;;;;;;1999.90;999.90;;;;;;;10.60;100.00;93953.50;6271758;22;20176;-60
2022/09/12 01:43:19;;;;;;;1999.90;999.90;;;;;;;10.55;100.00;93952.06;6271815;22;20153;-59
2022/09/12 01:45:49;;;;;;;1999.90;999.90;;;;;;;10.54;100.00;93941.59;6245595;23;20188;-60
2022/09/12 01:48:28;;;;;;;1999.90;999.90;;;;;;;10.53;100.00;93950.97;6245542;23;20157;-59
2022/09/12 01:51:00;;;;;;;1999.90;999.90;;;;;;;10.51;100.00;93956.09;6271214;22;20191;-60
2022/09/12 01:53:32;;;;;;;1999.90;999.90;;;;;;;10.46;100.00;93951.19;6246121;23;20164;-60
2022/09/12 01:56:22;;;;;;;1999.90;999.90;;;;;;;10.35;100.00;93946.09;6246161;23;20202;-60
2022/09/12 01:59:06;;;;;;;1999.90;999.90;;;;;;;10.35;100.00;93950.78;6245907;23;20156;-60
2022/09/12 02:01:35;;;;;;;1999.90;999.90;;;;;;;10.35;100.00;93950.78;6271633;22;20280;-60
2022/09/12 02:04:13;;;;;;;1999.90;999.90;;;;;;;10.34;100.00;93946.53;6245716;23;20160;-60
2022/09/12 02:06:53;;;;;;;1999.90;999.90;;;;;;;10.30;100.00;93948.59;6246028;23;20618;-60
2022/09/12 02:09:28;;;;;;;1999.90;999.90;;;;;;;10.29;100.00;93956.00;6245299;23;20174;-60
2022/09/12 02:11:59;;;;;;;1999.90;999.90;;;;;;;10.32;100.00;93946.19;6245538;23;20168;-59
2022/09/12 02:14:29;;;;;;;1999.90;999.90;;;;;;;10.30;100.00;93943.13;6271786;22;20187;-60
2022/09/12 02:17:10;;;;;;;1999.90;999.90;;;;;;;10.25;100.00;93930.03;6245620;23;20191;-59
2022/09/12 02:19:45;;;;;;;1999.90;999.90;;;;;;;10.25;100.00;93935.47;6245522;23;20161;-60
2022/09/12 02:22:15;;;;;;;1999.90;999.90;;;;;;;10.26;100.00;93931.56;6245304;23;20180;-60
2022/09/12 02:24:45;;;;;;;1999.90;999.90;;;;;;;10.24;100.00;93929.28;6271586;22;20172;-60
2022/09/12 02:27:36;;;;;;;1999.90;999.90;;;;;;;10.20;100.00;93922.41;6271555;22;20248;-59
2022/09/12 02:30:04;;;;;;;1999.90;999.90;;;;;;;10.21;100.00;93918.47;6245765;23;20165;-60
2022/09/12 02:32:34;;;;;;;1999.90;999.90;;;;;;;10.18;100.00;93920.09;6245281;23;20157;-60
2022/09/12 02:35:30;;;;;;;1999.90;999.90;;;;;;;10.17;100.00;93920.53;6270771;22;20510;-60
2022/09/12 02:38:20;;;;;;;1999.90;999.90;;;;;;;10.17;100.00;93917.81;6270428;22;20160;-60
2022/09/12 02:40:46;;;;;;;1999.90;999.90;;;;;;;10.13;100.00;93918.69;6245747;23;20173;-60
2022/09/12 02:43:11;;;;;;;1999.90;999.90;;;;;;;10.10;100.00;93925.00;6245263;23;20160;-60
2022/09/12 02:45:36;;;;;;;1999.90;999.90;;;;;;;10.10;100.00;93919.53;6245161;23;20489;-60
2022/09/12 02:48:02;;;;;;;1999.90;999.90;;;;;;;10.09;100.00;93909.84;6245678;22;20167;-60
2022/09/12 02:50:28;;;;;;;1999.90;999.90;;;;;;;10.05;100.00;93911.91;6270312;22;20192;-60
2022/09/12 02:52:58;;;;;;;1999.90;999.90;;;;;;;10.05;100.00;93922.81;6245676;22;20633;-59
2022/09/12 02:55:25;;;;;;;1999.90;999.90;;;;;;;10.05;100.00;93911.91;6245090;23;20169;-60
2022/09/12 02:57:51;;;;;;;1999.90;999.90;;;;;;;10.03;100.00;93914.28;6245409;22;20607;-59
2022/09/12 03:00:16;;;;;;;1999.90;999.90;;;;;;;9.99;100.00;93908.16;6246148;23;20222;-60
2022/09/12 03:03:08;;;;;;;1999.90;999.90;;;;;;;9.97;100.00;93910.56;6271582;22;20205;-60
2022/09/12 03:05:55;;;;;;;1999.90;999.90;;;;;;;9.99;100.00;93908.16;6246486;23;20208;-60
2022/09/12 03:08:48;;;;;;;1999.90;999.90;;;;;;;9.99;100.00;93897.25;6246829;23;20179;-60
2022/09/12 03:11:57;;;;;;;1999.90;999.90;;;;;;;9.98;100.00;93894.97;6272467;22;20248;-59
2022/09/12 03:14:34;;;;;;;1999.90;999.90;;;;;;;9.95;100.00;93907.50;6246817;23;20219;-60
2022/09/12 03:17:05;;;;;;;1999.90;999.90;;;;;;;9.94;100.00;93892.34;6272584;22;20180;-60
2022/09/12 03:19:52;;;;;;;1999.90;999.90;;;;;;;9.95;100.00;93901.31;6272545;22;20168;-59
2022/09/12 03:22:29;;;;;;;1999.90;999.90;;;;;;;9.89;100.00;93898.34;6272174;22;20482;-60
2022/09/12 03:25:22;;;;;;;1999.90;999.90;;;;;;;9.87;100.00;93898.00;6271850;22;20164;-60
2022/09/12 03:28:06;;;;;;;1999.90;999.90;;;;;;;9.84;100.00;93901.59;6272022;22;20168;-60
2022/09/12 03:30:43;;;;;;;1999.90;999.90;;;;;;;9.84;100.00;93904.34;6246756;23;20248;-59
2022/09/12 03:33:18;;;;;;;1999.90;999.90;;;;;;;9.80;100.00;93900.94;6246014;22;20171;-60
2022/09/12 03:35:45;;;;;;;1999.90;999.90;;;;;;;9.77;100.00;93901.81;6246504;23;20168;-59
2022/09/12 03:38:11;;;;;;;1999.90;999.90;;;;;;;9.78;100.00;93897.91;6271167;22;20504;-60
2022/09/12 03:40:38;;;;;;;1999.90;999.90;;;;;;;9.76;100.00;93910.41;6246397;22;20159;-60
2022/09/12 03:43:05;;;;;;;1999.90;999.90;;;;;;;9.76;100.00;93915.88;6245979;22;20168;-59
2022/09/12 03:45:31;;;;;;;1999.90;999.90;;;;;;;9.75;100.00;93909.69;6246397;22;20161;-60
2022/09/12 03:47:57;;;;;;;1999.90;999.90;;;;;;;9.74;100.00;93910.88;6245894;23;20473;-61
2022/09/12 03:50:22;;;;;;;1999.90;999.90;;;;;;;9.73;100.00;93905.88;6271746;22;20630;-59
2022/09/12 03:52:48;;;;;;;1999.90;999.90;;;;;;;9.69;100.00;93903.22;6271451;22;20170;-60
2022/09/12 03:55:14;;;;;;;1999.90;999.90;;;;;;;9.68;100.00;93909.88;6245857;23;20154;-59
2022/09/12 03:57:39;;;;;;;1999.90;999.90;;;;;;;9.66;100.00;93901.38;6245838;22;20171;-60
2022/09/12 04:00:07;;;;;;;1999.90;999.90;;;;;;;9.62;100.00;93906.16;6271837;22;20157;-60
2022/09/12 04:02:33;;;;;;;1999.90;999.90;;;;;;;9.60;100.00;93908.56;6271973;22;20187;-59
2022/09/12 04:04:58;;;;;;;1999.90;999.90;;;;;;;9.58;100.00;93916.38;6245902;22;20172;-59
2022/09/12 04:07:24;;;;;;;1999.90;999.90;;;;;;;9.56;100.00;93913.34;6271538;22;20172;-59
2022/09/12 04:09:49;;;;;;;1999.90;999.90;;;;;;;9.55;100.00;93925.44;6271691;22;20171;-60
2022/09/12 04:12:15;;;;;;;1999.90;999.90;;;;;;;9.53;100.00;93916.94;6245708;23;20175;-59
2022/09/12 04:14:40;;;;;;;1999.90;999.90;;;;;;;9.52;100.00;93922.81;6271521;22;20171;-60
2022/09/12 04:17:06;;;;;;;1999.90;999.90;;;;;;;9.47;100.00;93921.38;6272410;22;20172;-60
2022/09/12 04:19:31;;;;;;;1999.90;999.90;;;;;;;9.43;100.00;93928.13;6246642;23;20212;-59
2022/09/12 04:21:57;;;;;;;1999.90;999.90;;;;;;;9.40;100.00;93923.56;6272103;22;20198;-59
2022/09/12 04:24:22;;;;;;;1999.90;999.90;;;;;;;9.36;100.00;93920.91;6245814;23;20168;-60
2022/09/12 04:26:48;;;;;;;1999.90;999.90;;;;;;;9.32;100.00;93920.25;6271114;22;20172;-59
2022/09/12 04:29:16;;;;;;;1999.90;999.90;;;;;;;9.33;100.00;93921.03;6245800;23;20247;-59
2022/09/12 04:31:42;;;;;;;1999.90;999.90;;;;;;;9.32;100.00;93920.25;6271515;22;20220;-60
2022/09/12 04:34:08;;;;;;;1999.90;999.90;;;;;;;9.35;100.00;93919.38;6245678;23;20231;-59
2022/09/12 04:36:35;;;;;;;1999.90;999.90;;;;;;;9.33;100.00;93913.59;6271686;22;20270;-60
2022/09/12 04:39:02;;;;;;;1999.90;999.90;;;;;;;9.30;100.00;93911.75;6245839;23;20232;-59
2022/09/12 04:41:33;;;;;;;1999.90;999.90;;;;;;;9.27;100.00;93912.59;6245593;22;20242;-59
2022/09/12 04:44:01;;;;;;;1999.90;999.90;;;;;;;9.24;100.00;93921.63;6246414;23;20159;-59
2022/09/12 04:46:29;;;;;;;1999.90;999.90;;;;;;;9.25;100.00;93920.44;6245609;23;20164;-59
2022/09/12 04:48:54;;;;;;;1999.90;999.90;;;;;;;9.26;100.00;93911.06;6246055;22;20194;-59
2022/09/12 04:51:26;;;;;;;1999.90;999.90;;;;;;;9.29;100.00;93910.22;6246151;23;20191;-60
2022/09/12 04:53:54;;;;;;;1999.90;999.90;;;;;;;9.33;100.00;93905.41;6246103;23;20172;-59
2022/09/12 04:56:21;;;;;;;1999.90;999.90;;;;;;;9.38;100.00;93902.19;6246254;22;20258;-59
2022/09/12 04:58:46;;;;;;;1999.90;999.90;;;;;;;9.41;100.00;93908.72;6245665;22;20168;-60
2022/09/12 05:01:14;;;;;;;1999.90;999.90;;;;;;;9.58;100.00;93900.03;6245453;22;20185;-60
2022/09/12 05:03:44;;;;;;;1999.90;999.90;;;;;;;9.89;100.00;93887.44;6245816;22;20155;-60
2022/09/12 05:06:13;;;;;;;1999.90;999.90;;;;;;;10.25;100.00;93883.66;6271400;22;20661;-60
2022/09/12 05:08:38;;;;;;;1999.90;999.90;;;;;;;10.67;100.00;93879.56;6271166;22;20198;-59
2022/09/12 05:11:07;;;;;;;1999.90;999.90;;;;;;;11.19;100.00;93871.50;6245602;22;20161;-60
2022/09/12 05:13:32;;;;;;;1999.90;999.90;;;;;;;11.52;100.00;93878.91;6245670;23;20161;-59
2022/09/12 05:16:00;;;;;;;1999.90;999.90;;;;;;;11.94;100.00;93885.53;6270617;22;20161;-60
2022/09/12 05:18:25;;;;;;;1999.90;999.90;;;;;;;12.44;100.00;93892.59;6246028;22;20248;-60
2022/09/12 05:20:52;;;;;;;1999.90;999.90;;;;;;;12.33;100.00;93925.09;6244744;22;20165;-60
2022/09/12 05:23:18;;;;;;;1999.90;999.90;;;;;;;12.77;100.00;93932.72;6245432;23;20157;-60
2022/09/12 05:25:51;;;;;;;1999.90;999.90;;;;;;;13.44;100.00;93946.38;6245548;23;20162;-60
2022/09/12 05:28:18;;;;;;;1999.90;999.90;;;;;;;13.59;100.00;93980.25;6245627;23;20159;-60
2022/09/12 05:30:43;;;;;;;1999.90;999.90;;;;;;;14.08;100.00;94005.53;6245916;23;20164;-60
2022/09/12 05:33:09;;;;;;;1999.90;999.90;;;;;;;14.14;100.00;94038.63;6245782;23;20179;-60
2022/09/12 05:35:36;;;;;;;1999.90;999.90;;;;;;;14.56;100.00;94064.97;6270840;22;20186;-61
2022/09/12 05:38:02;;;;;;;1999.90;999.90;;;;;;;14.86;100.00;94091.47;6270943;22;20161;-61
2022/09/12 05:40:27;;;;;;;1999.90;999.90;;;;;;;15.02;100.00;94121.38;6246005;23;20166;-60
2022/09/12 05:42:53;;;;;;;1999.90;999.90;;;;;;;15.28;100.00;94144.53;6270778;22;20557;-59
2022/09/12 05:45:20;;;;;;;1999.90;999.90;;;;;;;15.63;100.00;94159.38;6271408;22;20189;-60
2022/09/12 05:47:46;;;;;;;1999.90;999.90;;;;;;;15.80;100.00;94184.53;6245341;22;20192;-60
2022/09/12 05:50:11;;;;;;;1999.90;999.90;;;;;;;15.93;100.00;94172.13;6270873;22;20209;-60
2022/09/12 05:52:37;;;;;;;1999.90;999.90;;;;;;;15.98;100.00;94174.22;6245213;22;20211;-61
2022/09/12 05:55:03;;;;;;;1999.90;999.90;;;;;;;16.17;100.00;94174.84;6245353;22;20163;-61
2022/09/12 05:57:29;;;;;;;1999.90;999.90;;;;;;;16.44;100.00;94177.47;6245370;22;20165;-60
2022/09/12 05:59:54;;;;;;;1999.90;999.90;;;;;;;16.68;100.00;94180.22;6270567;22;20172;-60
2022/09/12 06:02:20;;;;;;;1999.90;999.90;;;;;;;17.29;100.00;94179.31;6245233;22;20204;-60
2022/09/12 06:04:45;;;;;;;1999.90;999.90;;;;;;;17.88;100.00;94181.59;6245060;22;20172;-60
2022/09/12 06:07:11;;;;;;;1999.90;999.90;;;;;;;18.51;100.00;94177.22;6270441;22;20157;-60
2022/09/12 06:09:36;;;;;;;1999.90;999.90;;;;;;;19.12;100.00;94175.88;6245480;23;20165;-61
2022/09/12 06:12:03;;;;;;;1999.90;999.90;;;;;;;19.51;100.00;94184.63;6270706;22;20157;-60
2022/09/12 06:14:28;;;;;;;1999.90;999.90;;;;;;;19.75;100.00;94410.28;6245141;23;20283;-60
2022/09/12 06:16:53;;;;;;;1999.90;999.90;;;;;;;20.52;100.00;94311.22;6270626;22;20165;-60
2022/09/12 06:19:20;;;;;;;1999.90;999.90;;;;;;;21.09;100.00;94264.63;6245979;23;20165;-60
2022/09/12 06:21:48;;;;;;;1999.90;999.90;;;;;;;21.26;100.00;94534.91;6270497;22;20184;-60
2022/09/12 06:24:17;;;;;;;1999.90;999.90;;;;;;;21.83;100.00;94599.56;6271158;22;20169;-60
2022/09/12 06:26:42;;;;;;;1999.90;999.90;;;;;;;21.72;100.00;94666.22;6245690;23;20161;-60
2022/09/12 06:29:10;;;;;;;1999.90;999.90;;;;;;;22.58;100.00;94681.72;6245066;23;20169;-60
2022/09/12 06:31:37;;;;;;;1999.90;999.90;;;;;;;23.13;100.00;94779.50;6244626;22;20157;-60
2022/09/12 06:34:04;;;;;;;1999.90;999.90;;;;;;;23.24;100.00;94801.88;6270891;22;20248;-60
2022/09/12 06:36:35;;;;;;;1999.90;999.90;;;;;;;23.41;100.00;94844.53;6245573;22;20204;-60
2022/09/12 06:39:06;;;;;;;1999.90;999.90;;;;;;;23.23;100.00;94870.03;6245076;22;20168;-60
2022/09/12 06:41:32;;;;;;;1999.90;999.90;;;;;;;23.01;100.00;94889.34;6271031;22;20227;-60
2022/09/12 06:44:00;;;;;;;1999.90;999.90;;;;;;;23.49;100.00;94938.31;6245119;23;20239;-60
2022/09/12 06:46:26;;;;;;;1999.90;999.90;;;;;;;23.29;100.00;95038.03;6245127;23;20164;-60
2022/09/12 06:48:52;;;;;;;1999.90;999.90;;;;;;;22.97;100.00;95033.66;6245154;22;20173;-60
2022/09/12 06:51:21;;;;;;;1999.90;999.90;;;;;;;23.75;100.00;95044.22;6270268;22;20189;-59
2022/09/12 06:53:48;;;;;;;1999.90;999.90;;;;;;;23.61;100.00;95104.47;6245293;23;20165;-60
2022/09/12 06:56:21;;;;;;;1999.90;999.90;;;;;;;23.46;100.00;95103.06;6244877;23;20172;-60
2022/09/12 06:58:48;;;;;;;1999.90;999.90;;;;;;;23.39;100.00;95081.22;6270419;22;20161;-60
2022/09/12 07:01:19;;;;;;;1999.90;999.90;;;;;;;24.09;100.00;95143.66;6270976;22;20234;-60
2022/09/12 07:03:50;;;;;;;1999.90;999.90;;;;;;;24.36;100.00;95173.81;6244684;23;20207;-60
2022/09/12 07:06:17;;;;;;;1999.90;999.90;;;;;;;25.05;100.00;95187.09;6270508;22;20251;-60
2022/09/12 07:08:44;;;;;;;1999.90;999.90;;;;;;;25.09;100.00;95212.78;6244948;23;20176;-60
2022/09/12 07:11:17;;;;;;;1999.90;999.90;;;;;;;25.15;100.00;95216.38;6245729;22;20169;-60
2022/09/12 07:13:44;;;;;;;1999.90;999.90;;;;;;;25.42;100.00;95221.31;6245267;23;20356;-60
2022/09/12 07:16:10;;;;;;;1999.90;999.90;;;;;;;26.99;97.66;95275.69;6244705;23;20166;-59
2022/09/12 07:18:37;;;;;;;1999.90;999.90;;;;;;;26.85;91.09;95325.16;6245088;23;20224;-60
2022/09/12 07:21:04;;;;;;;1999.90;999.90;;;;;;;25.99;94.71;95305.72;6244558;22;20264;-59
2022/09/12 07:23:30;;;;;;;1999.90;999.90;;;;;;;26.61;94.83;95313.69;6244691;23;20169;-59
2022/09/12 07:25:57;;;;;;;1999.90;999.90;;;;;;;26.77;90.55;95312.91;6245116;23;20215;-60
2022/09/12 07:28:24;;;;;;;1999.90;999.90;;;;;;;26.31;94.74;95297.88;6244468;23;20164;-59
2022/09/12 07:30:52;;;;;;;1999.90;999.90;;;;;;;26.32;95.61;95294.56;6270578;22;20204;-59
2022/09/12 07:33:22;;;;;;;1999.90;999.90;;;;;;;26.89;93.79;95314.47;6245305;22;20158;-60
2022/09/12 07:35:47;;;;;;;1999.90;999.90;;;;;;;27.34;85.23;95343.97;6244695;22;20169;-60
2022/09/12 07:38:12;;;;;;;1999.90;999.90;;;;;;;27.24;89.51;95344.78;6270016;22;20194;-59
2022/09/12 07:40:38;;;;;;;1999.90;999.90;;;;;;;27.63;86.79;95354.59;6270170;22;20168;-60
2022/09/12 07:43:03;;;;;;;1999.90;999.90;;;;;;;27.51;83.13;95364.34;6244987;23;20249;-60
2022/09/12 07:45:29;;;;;;;1999.90;999.90;;;;;;;27.89;82.34;95371.88;6271990;22;20213;-60
2022/09/12 07:47:54;;;;;;;1999.90;999.90;;;;;;;27.42;81.31;95378.63;6246263;23;20164;-60
2022/09/12 07:50:20;;;;;;;1999.90;999.90;;;;;;;27.39;77.28;95385.28;6245811;22;20189;-61
2022/09/12 07:52:45;;;;;;;1999.90;999.90;;;;;;;28.15;71.72;95405.97;6245783;23;20161;-60
2022/09/12 07:55:11;;;;;;;1999.90;999.90;;;;;;;29.13;67.31;95407.94;6245852;22;20169;-60
2022/09/12 07:57:36;;;;;;;1999.90;999.90;;;;;;;29.08;65.51;95408.75;6271695;22;20207;-60
2022/09/12 08:00:04;;;;;;;1999.90;999.90;;;;;;;28.95;65.61;95405.75;6272387;22;20226;-60
2022/09/12 08:02:30;;;;;;;1999.90;999.90;;;;;;;28.98;68.40;95408.28;6246043;23;20177;-60
2022/09/12 08:04:55;;;;;;;1999.90;999.90;;;;;;;30.14;60.60;95409.97;6245765;23;20171;-60
2022/09/12 08:07:20;;;;;;;1999.90;999.90;;;;;;;29.15;60.70;95422.25;6271354;22;20223;-60
2022/09/12 08:09:46;;;;;;;1999.90;999.90;;;;;;;29.48;64.62;95405.03;6272311;22;20173;-58
2022/09/12 08:12:11;;;;;;;1999.90;999.90;;;;;;;28.99;61.06;95417.50;6271174;22;20249;-60
2022/09/12 08:14:37;;;;;;;1999.90;999.90;;;;;;;29.96;61.25;95416.31;6246433;22;20165;-60
2022/09/12 08:17:02;;;;;;;1999.90;999.90;;;;;;;30.37;57.87;95416.88;6271241;22;20176;-60
2022/09/12 08:19:28;;;;;;;1999.90;999.90;;;;;;;30.34;58.01;95421.50;6271604;22;20161;-60
2022/09/12 08:21:53;;;;;;;1999.90;999.90;;;;;;;30.61;55.00;95425.25;6246008;23;20193;-60
2022/09/12 08:24:18;;;;;;;1999.90;999.90;;;;;;;30.17;57.48;95414.56;6271482;22;20168;-60
2022/09/12 08:26:44;;;;;;;1999.90;999.90;;;;;;;30.51;58.45;95426.94;6271150;22;20168;-60
2022/09/12 08:29:09;;;;;;;1999.90;999.90;;;;;;;30.33;54.95;95422.03;6246457;22;20173;-60
2022/09/12 08:31:37;;;;;;;1999.90;999.90;;;;;;;30.11;57.16;95416.66;6270968;22;20174;-60
2022/09/12 08:34:04;;;;;;;1999.90;999.90;;;;;;;28.94;61.20;95430.31;6271890;22;20172;-60
2022/09/12 08:36:30;;;;;;;1999.90;999.90;;;;;;;28.63;67.07;95421.59;6245868;22;20165;-60
2022/09/12 08:38:58;;;;;;;1999.90;999.90;;;;;;;28.51;63.14;95420.13;6245776;23;20172;-60
2022/09/12 08:41:27;;;;;;;1999.90;999.90;;;;;;;28.28;64.70;95425.84;6245495;23;20256;-61
2022/09/12 08:44:19;;;;;;;1999.90;999.90;;;;;;;27.93;66.19;95420.13;6245992;23;20176;-60
2022/09/12 08:47:04;;;;;;;1999.90;999.90;;;;;;;28.30;65.86;95422.53;6271536;22;20165;-61
2022/09/12 08:49:35;;;;;;;1999.90;999.90;;;;;;;28.95;65.78;95419.84;6271158;22;20169;-61
2022/09/12 08:52:11;;;;;;;1999.90;999.90;;;;;;;29.23;61.79;95411.94;6246282;23;20181;-60
2022/09/12 08:54:38;;;;;;;1999.90;999.90;;;;;;;27.54;71.03;95411.00;6246301;23;20168;-60
2022/09/12 08:57:05;;;;;;;1999.90;999.90;;;;;;;29.29;64.78;95418.28;6245397;22;20219;-60
2022/09/12 08:59:37;;;;;;;1999.90;999.90;;;;;;;29.81;58.76;95413.16;6245781;23;20169;-59
2022/09/12 09:02:16;;;;;;;1999.90;999.90;;;;;;;30.18;60.70;95416.09;6246233;23;20204;-60
2022/09/12 09:04:55;;;;;;;1999.90;999.90;;;;;;;29.70;62.09;95413.28;6245993;23;20165;-60
2022/09/12 09:07:43;;;;;;;1999.90;999.90;;;;;;;29.84;60.13;95409.31;6245885;23;20157;-60
2022/09/12 09:10:25;;;;;;;1999.90;999.90;;;;;;;30.03;63.54;95401.63;6189030;23;20194;-60
2022/09/12 09:13:05;;;;;;;1999.90;999.90;;;;;;;30.07;61.36;95404.91;6189573;23;20273;-60
2022/09/12 09:15:54;;;;;;;1999.90;999.90;;;;;;;29.08;61.91;95414.38;6189873;23;20165;-59
2022/09/12 09:18:27;;;;;;;1999.90;999.90;;;;;;;27.45;70.59;95405.69;6189890;23;20166;-59
2022/09/12 09:21:02;;;;;;;1999.90;999.90;;;;;;;28.48;67.88;95409.94;6189529;23;20158;-60
2022/09/12 09:23:32;;;;;;;1999.90;999.90;;;;;;;26.88;70.40;95402.63;6189717;23;20248;-59
2022/09/12 09:26:09;;;;;;;1999.90;999.90;;;;;;;27.48;67.33;95401.84;6189101;23;20169;-60
2022/09/12 09:28:52;;;;;;;1999.90;999.90;;;;;;;26.41;74.31;95392.38;6189617;23;20169;-60
2022/09/12 09:31:20;;;;;;;1999.90;999.90;;;;;;;28.44;67.27;95395.38;6189538;23;20185;-59
2022/09/12 09:33:51;;;;;;;1999.90;999.90;;;;;;;29.30;65.03;95383.97;6189131;23;20166;-59
2022/09/12 09:36:21;;;;;;;1999.90;999.90;;;;;;;29.53;64.28;95381.72;6189741;23;20213;-60
2022/09/12 09:39:27;;;;;;;1999.90;999.90;;;;;;;28.15;73.62;95383.50;6188896;23;20248;-62
2022/09/12 09:42:08;;;;;;;1999.90;999.90;;;;;;;27.90;68.73;95384.63;6234936;23;20216;-60
2022/09/12 09:44:34;;;;;;;1999.90;999.90;;;;;;;27.64;70.58;95384.19;6270873;22;20165;-59
2022/09/12 09:47:00;;;;;;;1999.90;999.90;;;;;;;28.13;66.83;95386.06;6246092;22;20243;-59
2022/09/12 09:49:29;;;;;;;1999.90;999.90;;;;;;;28.96;66.87;95388.38;6245406;23;20157;-60
2022/09/12 09:51:56;;;;;;;1999.90;999.90;;;;;;;28.85;61.41;95394.06;6245264;23;20186;-60
2022/09/12 09:54:54;;;;;;;1999.90;999.90;;;;;;;27.92;65.46;95393.31;6270832;22;20161;-60
2022/09/12 09:57:34;;;;;;;1999.90;999.90;;;;;;;27.70;67.30;95387.75;6248010;22;20189;-60
2022/09/12 10:00:20;;;;;;;1999.90;999.90;;;;;;;27.78;61.69;95388.75;6271702;22;20224;-60
2022/09/12 10:03:01;;;;;;;1999.90;999.90;;;;;;;27.85;63.64;95391.03;6270888;22;20169;-59
2022/09/12 10:05:28;;;;;;;1999.90;999.90;;;;;;;27.74;65.38;95381.84;6271018;22;20169;-59
2022/09/12 10:07:54;;;;;;;1999.90;999.90;;;;;;;28.74;63.61;95382.13;6245085;22;20173;-59
2022/09/12 10:10:22;;;;;;;1999.90;999.90;;;;;;;29.18;63.24;95376.16;6245164;22;20177;-59
2022/09/12 10:12:48;;;;;;;1999.90;999.90;;;;;;;28.79;60.35;95379.28;6244725;22;20181;-60
2022/09/12 10:15:25;;;;;;;1999.90;999.90;;;;;;;27.74;68.37;95382.63;6271034;22;20161;-60
2022/09/12 10:17:51;;;;;;;1999.90;999.90;;;;;;;28.81;61.56;95373.91;6245420;22;20165;-60
2022/09/12 10:20:40;;;;;;;1999.90;999.90;;;;;;;28.53;59.86;95372.56;6245936;22;20161;-59
2022/09/12 10:23:17;;;;;;;1999.90;999.90;;;;;;;27.94;67.33;95368.28;6245938;23;20200;-60
2022/09/12 10:25:56;;;;;;;1999.90;999.90;;;;;;;27.05;72.59;95377.38;6270160;22;20211;-61
2022/09/12 10:28:30;;;;;;;1999.90;999.90;;;;;;;26.04;74.69;95369.34;6245158;23;20164;-60
2022/09/12 10:30:56;;;;;;;1999.90;999.90;;;;;;;26.65;70.40;95361.84;6245911;23;20179;-60
2022/09/12 10:33:24;;;;;;;1999.90;999.90;;;;;;;27.67;68.08;95360.69;6245244;22;20165;-60
2022/09/12 10:35:52;;;;;;;1999.90;999.90;;;;;;;28.64;64.05;95364.06;6270649;22;20157;-60
2022/09/12 10:38:27;;;;;;;1999.90;999.90;;;;;;;27.15;70.77;95361.81;6270896;22;20161;-60
2022/09/12 10:41:03;;;;;;;1999.90;999.90;;;;;;;27.79;67.97;95359.38;6270742;22;20165;-60
2022/09/12 10:43:34;;;;;;;1999.90;999.90;;;;;;;26.47;69.52;95370.72;6245258;22;20183;-59
2022/09/12 10:46:35;;;;;;;1999.90;999.90;;;;;;;27.09;71.81;95363.91;6245459;23;20161;-60
2022/09/12 10:49:22;;;;;;;1999.90;999.90;;;;;;;28.85;63.43;95365.19;6244662;23;20165;-60
2022/09/12 10:51:48;;;;;;;1999.90;999.90;;;;;;;27.12;67.61;95376.88;6270476;22;20193;-60
2022/09/12 10:54:17;;;;;;;1999.90;999.90;;;;;;;26.31;75.92;95363.06;6245249;23;20248;-59
2022/09/12 10:57:04;;;;;;;1999.90;999.90;;;;;;;26.24;75.89;95352.34;6244608;22;20161;-61
2022/09/12 10:59:48;;;;;;;1999.90;999.90;;;;;;;27.40;66.38;95353.16;6270382;22;20239;-60
2022/09/12 11:02:28;;;;;;;1999.90;999.90;;;;;;;26.63;76.11;95344.81;6270692;22;20173;-60
2022/09/12 11:05:07;;;;;;;1999.90;999.90;;;;;;;26.60;74.94;95345.81;6245471;23;20172;-60